Time;durP1;ratioP1;P1;durP2;ratioP2;P2;SDS_P1;SDS_P2;PMS_P1;PMS_P2;Temp;Humidity;BMP_temperature;BMP_pressure;BME280_temperature;BME280_humidity;BME280_pressure;Samples;Min_cycle;Max_cycle;Signal;HPM_P1;HPM_P2
2021/05/05 00:01:59;;;;;;;3.00;2.90;;;;;;;7.63;68.61;98663.97;5043495;28;20759;-76
2021/05/05 00:04:25;;;;;;;2.70;2.60;;;;;;;7.52;67.77;98659.19;5044010;28;20224;-76
2021/05/05 00:06:51;;;;;;;2.80;2.60;;;;;;;7.52;68.79;98672.16;5043280;28;20232;-75
2021/05/05 00:09:18;;;;;;;2.63;2.50;;;;;;;7.53;68.53;98671.25;5043340;28;20857;-76
2021/05/05 00:11:44;;;;;;;4.17;2.47;;;;;;;7.53;68.07;98653.94;5043832;28;20259;-76
2021/05/05 00:14:11;;;;;;;2.50;2.40;;;;;;;7.63;68.46;98659.66;5041954;28;20210;-76
2021/05/05 00:16:39;;;;;;;3.10;2.80;;;;;;;7.61;68.67;98661.47;5042944;28;20201;-75
2021/05/05 00:19:05;;;;;;;2.67;2.47;;;;;;;7.63;67.61;98651.88;5043226;28;20320;-75
2021/05/05 00:21:31;;;;;;;2.70;2.40;;;;;;;7.66;67.85;98653.50;5042630;28;20239;-76
2021/05/05 00:23:57;;;;;;;2.73;2.50;;;;;;;7.65;67.08;98654.38;5042511;28;20232;-75
2021/05/05 00:26:23;;;;;;;2.63;2.43;;;;;;;7.52;67.51;98651.41;5042137;28;20216;-76
2021/05/05 00:28:50;;;;;;;3.00;2.80;;;;;;;7.52;68.21;98660.03;5042915;28;20232;-76
2021/05/05 00:31:16;;;;;;;3.13;2.30;;;;;;;7.53;67.85;98651.34;5041819;28;20703;-76
2021/05/05 00:33:43;;;;;;;3.10;2.20;;;;;;;7.55;68.46;98659.06;5043317;28;20243;-76
2021/05/05 00:36:09;;;;;;;2.10;1.90;;;;;;;7.52;67.81;98664.38;5042865;28;20205;-77
2021/05/05 00:38:35;;;;;;;2.57;2.37;;;;;;;7.44;68.00;98648.22;5042690;28;20252;-75
2021/05/05 00:41:05;;;;;;;2.43;2.23;;;;;;;7.41;69.03;98651.75;5043600;28;20560;-76
2021/05/05 00:43:31;;;;;;;2.53;2.33;;;;;;;7.41;69.17;98648.31;5042232;28;20318;-76
2021/05/05 00:45:57;;;;;;;2.97;2.37;;;;;;;7.48;69.58;98662.78;5044015;28;20214;-75
2021/05/05 00:48:23;;;;;;;2.33;2.13;;;;;;;7.50;68.77;98643.66;5042383;28;20757;-77
2021/05/05 00:50:49;;;;;;;4.47;2.67;;;;;;;7.47;68.10;98656.75;5042806;28;20224;-76
2021/05/05 00:53:15;;;;;;;2.20;2.00;;;;;;;7.50;67.66;98651.44;5043961;28;20214;-76
2021/05/05 00:55:41;;;;;;;2.40;2.30;;;;;;;7.48;67.71;98649.81;5042689;28;20250;-76
2021/05/05 00:58:08;;;;;;;2.00;1.90;;;;;;;7.45;67.52;98652.50;5043109;28;20275;-76
2021/05/05 01:00:34;;;;;;;2.43;2.17;;;;;;;7.32;67.79;98646.91;5046430;28;20637;-75
2021/05/05 01:03:00;;;;;;;2.57;2.07;;;;;;;7.42;67.56;98644.84;5046269;28;20256;-76
2021/05/05 01:05:26;;;;;;;2.10;1.90;;;;;;;7.29;67.83;98647.84;5045938;28;20779;-76
2021/05/05 01:07:53;;;;;;;2.13;1.90;;;;;;;7.20;68.12;98640.38;5046633;28;20734;-75
2021/05/05 01:10:20;;;;;;;3.37;2.33;;;;;;;7.16;68.65;98647.41;5045522;28;20236;-76
2021/05/05 01:12:46;;;;;;;2.87;2.47;;;;;;;7.13;68.61;98652.69;5045606;28;20232;-75
2021/05/05 01:15:15;;;;;;;2.40;2.20;;;;;;;7.19;68.45;98648.22;5046273;28;20656;-76
2021/05/05 01:17:41;;;;;;;2.60;2.40;;;;;;;7.19;68.38;98648.22;5044965;28;20320;-77
2021/05/05 01:20:08;;;;;;;3.00;2.80;;;;;;;7.23;68.58;98647.22;5046666;28;20206;-76
2021/05/05 01:22:34;;;;;;;3.10;2.80;;;;;;;7.16;68.86;98650.00;5046537;28;20209;-75
2021/05/05 01:25:01;;;;;;;3.60;3.30;;;;;;;7.20;68.66;98665.50;5045663;28;20290;-76
2021/05/05 01:27:27;;;;;;;3.30;3.00;;;;;;;7.20;69.09;98663.75;5046157;28;20666;-76
2021/05/05 01:29:53;;;;;;;2.83;2.63;;;;;;;7.22;68.60;98664.53;5045868;28;20692;-76
2021/05/05 01:32:18;;;;;;;3.50;3.30;;;;;;;7.17;68.43;98645.66;5045332;28;20208;-76
2021/05/05 01:34:47;;;;;;;3.40;3.10;;;;;;;7.19;67.72;98653.41;5045500;28;20679;-75
2021/05/05 01:37:13;;;;;;;3.30;2.97;;;;;;;7.21;68.24;98655.03;5045852;28;20477;-75
2021/05/05 01:39:41;;;;;;;4.30;3.63;;;;;;;7.14;68.54;98650.97;5046183;28;20237;-76
2021/05/05 01:42:07;;;;;;;3.67;3.33;;;;;;;7.17;68.88;98645.66;5046042;28;20217;-76
2021/05/05 01:44:35;;;;;;;3.27;3.07;;;;;;;7.06;68.50;98642.59;5044473;28;20297;-75
2021/05/05 01:47:02;;;;;;;3.40;3.10;;;;;;;7.06;67.86;98627.88;5044709;28;20240;-76
2021/05/05 01:49:28;;;;;;;3.93;2.93;;;;;;;6.98;67.51;98640.25;5046063;28;20206;-76
2021/05/05 01:51:55;;;;;;;3.87;3.57;;;;;;;7.05;69.03;98633.94;5045134;28;20213;-76
2021/05/05 01:54:22;;;;;;;3.63;3.33;;;;;;;6.97;68.75;98654.97;5045335;28;20237;-75
2021/05/05 01:56:48;;;;;;;3.60;3.30;;;;;;;6.93;68.56;98649.94;5045832;28;20229;-75
2021/05/05 01:59:14;;;;;;;3.60;3.30;;;;;;;6.88;69.16;98649.25;5044971;28;20815;-76
2021/05/05 02:01:40;;;;;;;3.67;3.40;;;;;;;6.76;69.61;98643.56;5044734;28;20209;-76
2021/05/05 02:04:06;;;;;;;4.03;3.73;;;;;;;6.84;69.81;98640.72;5045420;28;20235;-76
2021/05/05 02:06:32;;;;;;;3.80;3.60;;;;;;;6.78;70.31;98629.69;5044471;28;20263;-76
2021/05/05 02:08:59;;;;;;;4.40;4.00;;;;;;;6.79;70.32;98636.56;5045515;28;20311;-75
2021/05/05 02:11:25;;;;;;;4.27;4.00;;;;;;;6.64;70.97;98631.00;5044704;28;20208;-76
2021/05/05 02:13:53;;;;;;;4.03;3.73;;;;;;;6.76;70.90;98629.75;5044586;28;20256;-75
2021/05/05 02:16:19;;;;;;;4.73;4.20;;;;;;;6.76;70.64;98624.56;5044590;28;20213;-75
2021/05/05 02:18:45;;;;;;;4.40;4.10;;;;;;;6.69;70.86;98638.63;5045239;28;20213;-76
2021/05/05 02:21:11;;;;;;;4.87;4.60;;;;;;;6.71;71.11;98624.69;5044289;28;20209;-75
2021/05/05 02:23:37;;;;;;;4.30;4.10;;;;;;;6.66;70.79;98630.94;5045020;28;21525;-76
2021/05/05 02:26:04;;;;;;;4.47;4.17;;;;;;;6.75;71.27;98630.63;5045683;28;20216;-75
2021/05/05 02:28:30;;;;;;;4.63;4.33;;;;;;;6.68;71.41;98626.53;5044875;28;20531;-75
2021/05/05 02:30:58;;;;;;;4.77;4.37;;;;;;;6.68;71.13;98617.03;5045438;28;20209;-75
2021/05/05 02:33:24;;;;;;;4.53;4.23;;;;;;;6.61;69.91;98633.69;5044742;28;20217;-76
2021/05/05 02:35:50;;;;;;;4.77;4.47;;;;;;;6.52;70.68;98633.97;5045235;28;20304;-75
2021/05/05 02:38:16;;;;;;;4.87;4.50;;;;;;;6.44;70.99;98630.75;5044705;28;20272;-75
2021/05/05 02:40:44;;;;;;;3.80;3.60;;;;;;;6.41;71.51;98623.94;5044699;28;20842;-75
2021/05/05 02:43:10;;;;;;;4.70;4.40;;;;;;;6.44;71.82;98621.28;5044342;28;20241;-76
2021/05/05 02:45:36;;;;;;;4.83;4.57;;;;;;;6.41;71.83;98607.56;5044630;28;20236;-74
2021/05/05 02:48:04;;;;;;;4.50;4.10;;;;;;;6.44;71.22;98612.63;5045145;28;20793;-76
2021/05/05 02:50:30;;;;;;;4.53;4.23;;;;;;;6.43;72.03;98619.56;5044311;28;20872;-76
2021/05/05 02:52:56;;;;;;;4.50;4.20;;;;;;;6.33;72.88;98608.63;5044755;28;20236;-75
2021/05/05 02:55:22;;;;;;;4.50;4.20;;;;;;;6.40;72.37;98617.03;5044509;28;20263;-76
2021/05/05 02:57:48;;;;;;;4.43;4.20;;;;;;;6.44;72.98;98617.81;5044912;28;20754;-75
2021/05/05 03:00:14;;;;;;;5.33;4.90;;;;;;;6.48;72.71;98617.69;5044435;28;20209;-76
2021/05/05 03:02:40;;;;;;;4.70;4.47;;;;;;;6.56;72.66;98623.47;5043367;28;20248;-77
2021/05/05 03:05:09;;;;;;;4.67;4.37;;;;;;;6.54;73.18;98614.88;5044332;28;20229;-76
2021/05/05 03:07:34;;;;;;;5.50;5.10;;;;;;;6.53;72.59;98614.94;5043486;28;20275;-76
2021/05/05 03:10:00;;;;;;;4.77;4.47;;;;;;;6.53;72.95;98617.53;5044286;28;20233;-76
2021/05/05 03:12:26;;;;;;;5.10;4.70;;;;;;;6.50;72.33;98618.47;5044380;28;20201;-75
2021/05/05 03:14:52;;;;;;;5.00;4.70;;;;;;;6.43;72.50;98605.75;5044077;28;20197;-76
2021/05/05 03:17:18;;;;;;;5.07;4.77;;;;;;;6.30;72.30;98626.88;5044329;28;20250;-76
2021/05/05 03:19:44;;;;;;;5.47;5.03;;;;;;;6.23;73.56;98615.00;5043335;28;20235;-75
2021/05/05 03:22:10;;;;;;;4.67;4.37;;;;;;;6.32;73.12;98617.31;5043244;28;20236;-76
2021/05/05 03:24:36;;;;;;;5.03;4.70;;;;;;;6.31;72.58;98614.75;5042852;28;20275;-76
2021/05/05 03:27:02;;;;;;;5.50;5.20;;;;;;;6.27;72.40;98618.34;5043272;28;20240;-76
2021/05/05 03:29:28;;;;;;;4.97;4.67;;;;;;;6.19;72.87;98621.16;5044004;28;20244;-76
2021/05/05 03:31:56;;;;;;;5.67;5.27;;;;;;;6.29;72.59;98620.00;5043037;28;20217;-75
2021/05/05 03:34:22;;;;;;;5.60;5.20;;;;;;;6.32;72.61;98632.00;5043863;28;20204;-76
2021/05/05 03:36:48;;;;;;;5.53;5.03;;;;;;;6.31;72.85;98632.91;5043372;28;20321;-76
2021/05/05 03:39:14;;;;;;;5.33;4.83;;;;;;;6.22;71.87;98633.16;5043327;28;20619;-75
2021/05/05 03:41:40;;;;;;;4.57;4.27;;;;;;;6.30;71.62;98633.78;5043637;28;20283;-74
2021/05/05 03:44:08;;;;;;;4.60;4.27;;;;;;;6.32;71.97;98648.41;5042757;28;20225;-76
2021/05/05 03:46:33;;;;;;;4.80;4.40;;;;;;;6.22;72.13;98646.97;5042874;28;20280;-76
2021/05/05 03:48:59;;;;;;;4.87;4.37;;;;;;;6.26;71.97;98651.16;5042300;28;20209;-75
2021/05/05 03:51:25;;;;;;;4.10;3.80;;;;;;;6.22;72.18;98648.72;5043482;28;20216;-76
2021/05/05 03:53:51;;;;;;;4.80;4.40;;;;;;;6.27;72.64;98652.03;5042669;28;20690;-77
2021/05/05 03:56:18;;;;;;;4.80;4.50;;;;;;;6.30;72.31;98647.59;5042693;28;20499;-75
2021/05/05 03:58:44;;;;;;;4.60;4.30;;;;;;;6.28;72.19;98653.72;5042914;28;20630;-76
2021/05/05 04:01:09;;;;;;;4.80;4.40;;;;;;;6.36;72.52;98652.59;5043428;28;20237;-76
2021/05/05 04:03:35;;;;;;;5.07;4.40;;;;;;;6.42;72.20;98655.88;5042645;28;20284;-76
2021/05/05 04:06:01;;;;;;;6.00;5.00;;;;;;;6.32;72.15;98651.00;5042959;28;20256;-75
2021/05/05 04:08:27;;;;;;;4.63;4.27;;;;;;;6.28;71.97;98658.88;5043110;28;20719;-77
2021/05/05 04:10:53;;;;;;;4.67;4.27;;;;;;;6.35;72.25;98661.25;5042925;28;20381;-75
2021/05/05 04:13:20;;;;;;;4.43;4.10;;;;;;;6.35;72.25;98663.84;5042720;28;20206;-76
2021/05/05 04:15:46;;;;;;;4.63;4.23;;;;;;;6.36;71.89;98664.69;5043295;28;20210;-77
2021/05/05 04:18:11;;;;;;;5.30;4.90;;;;;;;6.31;72.15;98662.25;5042760;28;20221;-76
2021/05/05 04:20:37;;;;;;;5.23;4.93;;;;;;;6.36;73.12;98662.97;5043783;28;20517;-76
2021/05/05 04:23:03;;;;;;;5.60;5.10;;;;;;;6.18;73.69;98663.50;5042173;28;20590;-75
2021/05/05 04:25:30;;;;;;;5.23;4.87;;;;;;;6.22;74.64;98666.84;5042635;28;20303;-76
2021/05/05 04:27:56;;;;;;;4.70;4.30;;;;;;;6.25;73.46;98669.38;5042717;28;20229;-75
2021/05/05 04:30:23;;;;;;;4.87;4.40;;;;;;;6.38;73.11;98675.00;5042160;28;20301;-75
2021/05/05 04:32:51;;;;;;;6.57;4.90;;;;;;;6.28;72.71;98672.72;5042133;28;20311;-75
2021/05/05 04:35:17;;;;;;;4.70;4.40;;;;;;;6.34;72.96;98664.75;5046466;28;20206;-77
2021/05/05 04:37:43;;;;;;;4.57;4.20;;;;;;;6.40;72.89;98670.63;5046676;28;20228;-77
2021/05/05 04:40:10;;;;;;;5.97;5.37;;;;;;;6.45;72.77;98663.56;5047181;28;20240;-75
2021/05/05 04:42:36;;;;;;;4.50;4.20;;;;;;;6.39;71.10;98674.13;5047082;28;20699;-75
2021/05/05 04:45:03;;;;;;;5.90;4.90;;;;;;;6.43;70.04;98666.22;5045935;28;20233;-75
2021/05/05 04:47:30;;;;;;;4.60;3.87;;;;;;;6.40;70.36;98678.41;5046859;28;20294;-75
2021/05/05 04:49:56;;;;;;;4.60;4.20;;;;;;;6.45;70.71;98682.56;5045767;28;20240;-76
2021/05/05 04:52:22;;;;;;;3.60;3.40;;;;;;;6.50;70.48;98665.13;5046639;28;20263;-76
2021/05/05 04:54:48;;;;;;;4.00;3.60;;;;;;;6.51;70.32;98676.34;5045933;28;20316;-75
2021/05/05 04:57:13;;;;;;;3.90;3.50;;;;;;;6.45;69.54;98697.28;5046640;28;20723;-75
2021/05/05 04:59:39;;;;;;;3.20;2.87;;;;;;;6.38;69.04;98690.56;5046578;28;20295;-75
2021/05/05 05:02:05;;;;;;;3.27;2.97;;;;;;;6.44;69.48;98699.03;5045440;28;20219;-76
2021/05/05 05:04:33;;;;;;;3.17;2.97;;;;;;;6.45;70.22;98695.50;5046271;28;20225;-76
2021/05/05 05:06:58;;;;;;;3.60;3.30;;;;;;;6.41;69.83;98700.84;5046141;28;20336;-76
2021/05/05 05:09:24;;;;;;;4.13;3.63;;;;;;;6.46;70.22;98701.53;5046564;28;20671;-76
2021/05/05 05:11:50;;;;;;;3.90;3.60;;;;;;;6.48;70.59;98705.81;5046163;28;20210;-78
2021/05/05 05:14:16;;;;;;;4.30;3.87;;;;;;;6.44;71.44;98705.91;5045433;28;20680;-76
2021/05/05 05:16:42;;;;;;;3.63;3.30;;;;;;;6.47;71.18;98701.50;5045998;28;20707;-76
2021/05/05 05:19:08;;;;;;;3.30;2.97;;;;;;;6.33;73.81;98701.91;5046072;28;20216;-76
2021/05/05 05:21:36;;;;;;;4.33;3.97;;;;;;;5.94;76.87;98719.41;5046008;28;20600;-76
2021/05/05 05:24:02;;;;;;;5.30;4.90;;;;;;;5.79;79.01;98718.13;5045594;28;20229;-77
2021/05/05 05:26:27;;;;;;;5.53;5.13;;;;;;;5.72;79.69;98726.94;5044639;28;20219;-76
2021/05/05 05:28:53;;;;;;;5.50;5.20;;;;;;;5.69;80.74;98725.28;5045615;28;20304;-77
2021/05/05 05:31:19;;;;;;;5.33;4.93;;;;;;;5.65;80.79;98738.31;5044393;28;20205;-76
2021/05/05 05:33:45;;;;;;;5.63;5.23;;;;;;;5.73;81.02;98739.84;5045144;28;20303;-77
2021/05/05 05:36:11;;;;;;;5.70;5.20;;;;;;;5.84;80.07;98749.91;5045580;28;20300;-76
2021/05/05 05:38:37;;;;;;;7.13;5.93;;;;;;;6.00;78.51;98741.75;5044906;28;20227;-77
2021/05/05 05:41:03;;;;;;;7.00;6.50;;;;;;;6.07;77.77;98749.31;5045185;28;20687;-77
2021/05/05 05:43:29;;;;;;;6.10;5.60;;;;;;;6.12;76.50;98754.34;5044384;28;20239;-76
2021/05/05 05:45:55;;;;;;;5.97;5.67;;;;;;;6.16;77.32;98755.97;5045402;28;20240;-76
2021/05/05 05:48:21;;;;;;;5.70;5.33;;;;;;;6.16;75.58;98758.53;5044642;28;20237;-76
2021/05/05 05:50:47;;;;;;;5.63;5.13;;;;;;;6.19;74.96;98757.63;5044313;28;20785;-75
2021/05/05 05:53:13;;;;;;;4.50;4.20;;;;;;;6.26;74.36;98759.97;5045350;28;20559;-76
2021/05/05 05:55:43;;;;;;;4.73;4.27;;;;;;;6.26;74.38;98762.56;5044970;28;20202;-76
2021/05/05 05:58:08;;;;;;;4.10;3.80;;;;;;;6.30;73.58;98771.97;5044761;28;20291;-76
2021/05/05 06:00:34;;;;;;;5.30;4.20;;;;;;;6.24;73.15;98766.09;5044317;28;20295;-76
2021/05/05 06:03:01;;;;;;;4.50;4.10;;;;;;;6.17;73.51;98765.44;5044393;28;20209;-76
2021/05/05 06:05:26;;;;;;;3.90;3.60;;;;;;;6.18;73.01;98763.69;5044919;28;20229;-75
2021/05/05 06:07:52;;;;;;;5.20;4.80;;;;;;;6.19;73.28;98768.84;5044699;28;20386;-77
2021/05/05 06:10:19;;;;;;;4.50;4.20;;;;;;;6.24;73.89;98772.13;5045624;28;20236;-76
2021/05/05 06:12:45;;;;;;;4.80;4.33;;;;;;;6.30;74.11;98774.56;5044417;28;20209;-75
2021/05/05 06:15:12;;;;;;;3.83;3.53;;;;;;;6.39;74.33;98780.38;5045948;28;20205;-77
2021/05/05 06:17:38;;;;;;;3.70;3.40;;;;;;;6.30;73.03;98781.47;5043966;28;20252;-77
2021/05/05 06:20:06;;;;;;;4.00;3.70;;;;;;;6.33;73.69;98766.69;5045130;28;20848;-76
2021/05/05 06:22:32;;;;;;;5.87;3.53;;;;;;;6.28;72.13;98768.59;5045224;28;20233;-76
2021/05/05 06:24:58;;;;;;;3.63;3.20;;;;;;;6.35;72.08;98769.25;5043989;28;20221;-75
2021/05/05 06:27:24;;;;;;;3.63;3.17;;;;;;;6.33;72.20;98765.84;5044733;28;20235;-74
2021/05/05 06:29:50;;;;;;;3.37;3.07;;;;;;;6.40;72.52;98771.69;5044659;28;20204;-76
2021/05/05 06:32:16;;;;;;;3.20;2.90;;;;;;;6.36;71.83;98768.34;5044653;28;20230;-76
2021/05/05 06:34:42;;;;;;;3.83;3.17;;;;;;;6.34;71.92;98777.91;5043997;28;20672;-75
2021/05/05 06:37:08;;;;;;;7.33;4.57;;;;;;;6.31;73.17;98784.03;5044797;28;20287;-76
2021/05/05 06:39:34;;;;;;;4.53;4.00;;;;;;;6.38;72.59;98774.31;5044908;28;20256;-76
2021/05/05 06:42:00;;;;;;;4.83;4.00;;;;;;;6.46;71.85;98789.66;5044355;28;20209;-76
2021/05/05 06:44:26;;;;;;;3.70;3.40;;;;;;;6.54;71.84;98785.97;5044050;28;20229;-76
2021/05/05 06:46:55;;;;;;;6.33;3.83;;;;;;;6.60;71.33;98778.88;5043416;28;20248;-74
2021/05/05 06:49:21;;;;;;;3.73;3.03;;;;;;;6.57;68.98;98778.09;5044207;28;20285;-76
2021/05/05 06:51:47;;;;;;;3.33;2.80;;;;;;;6.68;70.48;98782.97;5044714;28;20240;-75
2021/05/05 06:54:13;;;;;;;5.60;2.80;;;;;;;6.80;68.72;98788.66;5044114;28;20201;-74
2021/05/05 06:56:39;;;;;;;3.30;2.23;;;;;;;6.82;68.56;98798.13;5043029;28;20202;-77
2021/05/05 06:59:05;;;;;;;3.47;2.10;;;;;;;6.81;69.47;98787.78;5044617;28;20300;-75
2021/05/05 07:01:31;;;;;;;3.13;2.10;;;;;;;6.68;68.04;98798.53;5044287;28;20255;-74
2021/05/05 07:03:58;;;;;;;3.57;1.90;;;;;;;6.63;69.28;98794.38;5044462;28;20209;-75
2021/05/05 07:06:23;;;;;;;3.37;2.50;;;;;;;6.64;69.35;98811.59;5043856;28;20210;-76
2021/05/05 07:08:52;;;;;;;3.73;1.90;;;;;;;6.54;69.60;98813.63;5043694;28;20756;-76
2021/05/05 07:11:18;;;;;;;2.57;1.90;;;;;;;6.52;69.73;98812.81;5044461;28;20230;-76
2021/05/05 07:13:44;;;;;;;3.47;2.13;;;;;;;6.43;70.18;98802.72;5043289;28;20308;-76
2021/05/05 07:16:10;;;;;;;4.07;2.47;;;;;;;6.49;69.79;98812.91;5044169;28;20233;-76
2021/05/05 07:18:36;;;;;;;4.27;2.50;;;;;;;6.49;70.41;98811.16;5043369;28;20225;-76
2021/05/05 07:21:03;;;;;;;3.07;2.10;;;;;;;6.32;70.57;98809.06;5043028;28;21098;-75
2021/05/05 07:23:29;;;;;;;5.13;3.53;;;;;;;6.36;71.46;98815.84;5043771;28;20224;-75
2021/05/05 07:25:55;;;;;;;3.20;2.23;;;;;;;6.37;70.39;98801.16;5043854;28;20233;-77
2021/05/05 07:28:21;;;;;;;4.10;2.93;;;;;;;6.59;70.84;98809.16;5043442;28;20605;-76
2021/05/05 07:30:47;;;;;;;4.57;2.90;;;;;;;6.83;70.76;98794.63;5043438;28;20246;-77
2021/05/05 07:33:14;;;;;;;3.03;2.43;;;;;;;7.04;70.72;98800.91;5043334;28;20228;-76
2021/05/05 07:35:42;;;;;;;5.10;2.70;;;;;;;7.32;69.89;98798.28;5043713;28;20206;-75
2021/05/05 07:38:23;;;;;;;2.83;2.33;;;;;;;7.43;69.39;98802.25;5044621;28;20228;-77
2021/05/05 07:46:41;;;;;;;4.30;2.70;;;;;;;7.34;69.50;98816.41;5043222;28;20236;-75
2021/05/05 07:49:10;;;;;;;2.63;2.30;;;;;;;7.30;69.51;98826.03;5042541;28;20277;-76
2021/05/05 07:51:36;;;;;;;3.07;2.17;;;;;;;7.41;67.95;98793.69;5043671;28;20202;-75
2021/05/05 07:54:03;;;;;;;2.97;2.27;;;;;;;7.16;66.69;98807.44;5043065;28;20212;-75
2021/05/05 07:56:29;;;;;;;4.10;2.27;;;;;;;7.21;67.72;98792.56;5042647;28;20248;-75
2021/05/05 07:59:00;;;;;;;6.67;3.07;;;;;;;7.45;68.05;98809.13;5042399;28;20211;-75
2021/05/05 08:01:26;;;;;;;5.43;2.17;;;;;;;7.39;66.41;98800.66;5043843;28;20213;-75
2021/05/05 08:03:52;;;;;;;5.23;2.10;;;;;;;7.35;66.58;98800.78;5043186;28;20781;-77
2021/05/05 08:06:18;;;;;;;2.47;1.90;;;;;;;7.38;66.32;98793.78;5042994;28;20596;-75
2021/05/05 08:08:44;;;;;;;6.87;2.13;;;;;;;7.48;66.61;98802.97;5042729;28;20229;-77
2021/05/05 08:11:11;;;;;;;5.60;2.33;;;;;;;7.26;65.83;98798.47;5043005;28;20267;-76
2021/05/05 08:13:37;;;;;;;6.30;2.00;;;;;;;7.31;66.75;98819.06;5043619;28;20229;-77
2021/05/05 08:16:03;;;;;;;5.53;2.13;;;;;;;7.38;66.51;98799.81;5042875;28;20558;-77
2021/05/05 08:18:29;;;;;;;3.50;1.80;;;;;;;7.52;66.12;98810.59;5043516;28;20228;-77
2021/05/05 08:20:55;;;;;;;2.80;1.80;;;;;;;7.40;66.33;98811.00;5043686;28;20237;-77
2021/05/05 08:23:21;;;;;;;6.53;2.07;;;;;;;7.62;66.50;98807.72;5042167;28;21232;-77
2021/05/05 08:25:48;;;;;;;5.70;2.00;;;;;;;7.58;64.57;98829.50;5043805;28;21010;-77
2021/05/05 08:28:15;;;;;;;3.63;1.70;;;;;;;7.25;64.58;98801.94;5044142;28;20224;-78
2021/05/05 08:30:41;;;;;;;4.07;2.20;;;;;;;7.27;65.22;98820.06;5041075;28;20620;-77
2021/05/05 08:33:07;;;;;;;12.37;2.93;;;;;;;7.40;64.84;98815.38;5042314;28;20197;-77
2021/05/05 08:35:33;;;;;;;5.87;2.00;;;;;;;7.49;64.29;98809.84;5042781;28;20208;-77
2021/05/05 08:37:59;;;;;;;3.13;1.47;;;;;;;7.48;63.09;98822.00;5042655;28;20228;-76
2021/05/05 08:40:25;;;;;;;3.30;1.77;;;;;;;7.45;62.84;98819.50;5041947;28;20217;-77
2021/05/05 08:42:51;;;;;;;4.20;1.97;;;;;;;7.27;63.60;98820.91;5043798;28;20240;-77
2021/05/05 08:45:20;;;;;;;4.53;2.47;;;;;;;7.47;65.23;98825.50;5042937;28;20232;-78
2021/05/05 08:47:47;;;;;;;4.07;2.00;;;;;;;7.38;63.80;98823.19;5042588;28;21235;-78
2021/05/05 08:50:16;;;;;;;6.83;2.33;;;;;;;7.35;65.77;98838.84;5042668;28;20201;-77
2021/05/05 08:52:43;;;;;;;3.07;1.70;;;;;;;7.43;65.39;98833.41;5043726;28;20303;-79
2021/05/05 08:55:11;;;;;;;3.80;2.07;;;;;;;7.49;65.06;98833.22;5043815;28;20205;-75
2021/05/05 08:57:37;;;;;;;6.93;2.60;;;;;;;7.61;65.30;98839.75;5043927;28;20257;-78
2021/05/05 09:00:05;;;;;;;4.57;2.97;;;;;;;7.58;65.21;98847.66;5043370;28;20205;-77
2021/05/05 09:02:32;;;;;;;7.67;2.87;;;;;;;7.68;65.75;98842.09;5042619;28;20854;-77
2021/05/05 09:04:59;;;;;;;3.30;2.17;;;;;;;7.53;64.29;98822.69;5041719;28;20263;-76
2021/05/05 09:07:31;;;;;;;6.60;5.83;;;;;;;7.37;63.61;98837.06;5042216;28;20226;-77
2021/05/05 09:10:01;;;;;;;7.63;2.00;;;;;;;7.42;65.09;98837.75;5042685;28;20209;-78
2021/05/05 09:12:27;;;;;;;4.13;2.10;;;;;;;7.63;65.62;98824.97;5044375;28;20299;-78
2021/05/05 09:14:56;;;;;;;4.77;2.30;;;;;;;7.61;65.19;98834.56;5042701;28;20968;-78
2021/05/05 09:17:24;;;;;;;5.67;2.30;;;;;;;7.67;65.33;98829.16;5042939;28;20233;-78
2021/05/05 09:20:12;;;;;;;5.60;2.43;;;;;;;7.64;64.37;98844.88;5044361;28;20213;-77
2021/05/05 09:22:40;;;;;;;4.17;2.43;;;;;;;7.40;64.65;98836.97;5048992;28;20209;-77
2021/05/05 09:25:09;;;;;;;4.20;2.57;;;;;;;7.26;67.25;98855.56;5047250;28;21141;-77
2021/05/05 09:27:35;;;;;;;3.67;2.70;;;;;;;7.01;71.24;98870.19;5048083;28;20229;-78
2021/05/05 09:30:02;;;;;;;3.83;2.50;;;;;;;6.62;73.75;98873.91;5047720;28;20205;-78
2021/05/05 09:32:28;;;;;;;3.83;3.20;;;;;;;6.31;76.43;98882.50;5046674;28;20216;-77
2021/05/05 09:34:59;;;;;;;3.63;3.33;;;;;;;6.40;76.28;98859.81;5046805;28;20259;-77
2021/05/05 09:37:26;;;;;;;4.30;3.90;;;;;;;6.66;76.11;98880.69;5046250;28;20225;-78
2021/05/05 09:39:59;;;;;;;4.67;3.50;;;;;;;6.95;73.20;98874.66;5048466;28;20208;-77
2021/05/05 09:42:27;;;;;;;4.40;3.33;;;;;;;7.10;74.27;98868.16;5044796;28;20213;-77
2021/05/05 09:44:55;;;;;;;4.63;2.80;;;;;;;7.11;73.12;98874.19;5044706;28;20738;-76
2021/05/05 09:47:21;;;;;;;4.93;2.50;;;;;;;7.49;72.78;98864.38;5043787;28;20268;-77
2021/05/05 09:49:47;;;;;;;3.07;1.90;;;;;;;7.83;71.31;98868.47;5044808;28;20243;-78
2021/05/05 09:52:22;;;;;;;4.63;2.30;;;;;;;7.93;69.98;98880.28;5045147;28;20217;-78
2021/05/05 09:54:54;;;;;;;4.10;2.10;;;;;;;7.75;66.30;98853.16;5045153;28;20561;-77
2021/05/05 09:57:23;;;;;;;2.90;2.57;;;;;;;7.89;65.89;98860.50;5044743;28;20232;-75
2021/05/05 10:00:01;;;;;;;3.07;2.10;;;;;;;8.15;65.25;98870.00;5045267;28;20205;-78
2021/05/05 10:02:29;;;;;;;3.57;2.53;;;;;;;8.32;65.68;98854.69;5044177;28;20304;-77
2021/05/05 10:05:03;;;;;;;4.00;2.80;;;;;;;8.69;65.14;98868.13;5044290;28;21250;-76
2021/05/05 10:07:51;;;;;;;2.90;2.70;;;;;;;9.01;67.18;98860.88;5044802;28;20223;-78
2021/05/05 10:10:18;;;;;;;4.03;2.53;;;;;;;8.75;63.75;98855.72;5044950;28;20218;-76
2021/05/05 10:12:45;;;;;;;4.13;2.27;;;;;;;8.79;63.29;98871.25;5044784;28;20574;-75
2021/05/05 10:15:12;;;;;;;3.60;2.93;;;;;;;8.67;60.82;98865.56;5046125;28;20620;-74
2021/05/05 10:17:38;;;;;;;3.30;2.07;;;;;;;8.46;60.53;98859.41;5044967;28;20221;-75
2021/05/05 10:20:08;;;;;;;2.63;1.93;;;;;;;8.18;60.99;98864.69;5044682;28;20450;-77
2021/05/05 10:22:36;;;;;;;3.40;2.10;;;;;;;8.01;61.57;98875.66;5044842;28;20240;-78
2021/05/05 10:25:03;;;;;;;2.60;2.37;;;;;;;8.10;62.36;98866.69;5044052;28;20225;-76
2021/05/05 10:27:30;;;;;;;3.40;2.47;;;;;;;8.30;61.71;98864.25;5045245;28;20257;-78
2021/05/05 10:29:56;;;;;;;3.27;2.50;;;;;;;8.33;60.96;98863.31;5044440;28;20218;-77
2021/05/05 10:32:29;;;;;;;2.97;2.60;;;;;;;8.50;62.44;98855.81;5044135;28;20244;-75
2021/05/05 10:34:55;;;;;;;4.47;2.97;;;;;;;8.47;61.76;98861.09;5043879;28;20314;-77
2021/05/05 10:37:40;;;;;;;3.73;2.87;;;;;;;8.78;61.79;98859.13;5045333;28;20232;-77
2021/05/05 10:40:15;;;;;;;3.20;2.43;;;;;;;8.91;59.53;98871.63;5045093;28;21263;-77
2021/05/05 10:42:49;;;;;;;4.13;2.58;;;;;;;8.69;60.72;98871.56;5043926;28;20440;-76
2021/05/05 10:45:29;;;;;;;3.20;2.43;;;;;;;8.64;58.92;98864.84;5043653;28;20268;-77
2021/05/05 10:48:11;;;;;;;4.13;2.70;;;;;;;8.41;60.68;98869.13;5043324;28;20275;-75
2021/05/05 10:50:55;;;;;;;3.63;1.97;;;;;;;8.46;59.70;98853.34;5044163;28;20215;-75
2021/05/05 10:53:22;;;;;;;1.70;1.50;;;;;;;8.72;57.80;98876.69;5043955;28;20202;-75
2021/05/05 10:55:51;;;;;;;4.37;2.43;;;;;;;8.95;58.22;98874.97;5044694;28;20236;-75
2021/05/05 10:58:19;;;;;;;2.70;2.03;;;;;;;9.37;57.23;98863.78;5045373;28;20236;-75
2021/05/05 11:00:55;;;;;;;4.87;1.93;;;;;;;9.56;57.51;98866.53;5045203;28;20211;-75
2021/05/05 11:04:01;;;;;;;3.20;1.93;;;;;;;9.50;55.07;98874.59;5044683;28;20209;-75
2021/05/05 11:06:57;;;;;;;4.17;2.00;;;;;;;9.45;56.42;98874.75;5044623;28;20231;-75
2021/05/05 11:09:46;;;;;;;2.87;1.47;;;;;;;9.73;54.69;98878.84;5044102;28;20652;-76
2021/05/05 11:12:37;;;;;;;1.90;1.57;;;;;;;9.34;54.84;98892.56;5044943;28;20302;-77
2021/05/05 11:15:04;;;;;;;2.70;1.57;;;;;;;9.64;55.84;98894.88;5045100;28;20237;-75
2021/05/05 11:17:30;;;;;;;2.83;1.93;;;;;;;9.58;55.33;98897.72;5042399;28;20282;-76
2021/05/05 11:19:55;;;;;;;4.47;2.67;;;;;;;9.72;55.70;98898.03;5043513;28;20391;-77
2021/05/05 11:22:50;;;;;;;2.67;2.00;;;;;;;9.32;56.30;98930.84;5045014;28;21263;-75
2021/05/05 11:25:25;;;;;;;6.17;2.57;;;;;;;8.70;58.21;98922.69;5044484;28;20231;-77
2021/05/05 11:27:53;;;;;;;3.47;2.07;;;;;;;8.67;59.66;98934.97;5043967;28;20237;-76
2021/05/05 11:30:40;;;;;;;3.43;2.30;;;;;;;8.63;60.50;98930.78;5043541;28;20202;-75
2021/05/05 11:33:07;;;;;;;3.80;3.50;;;;;;;8.29;67.21;98948.34;5043017;28;20290;-75
2021/05/05 11:35:34;;;;;;;3.20;3.00;;;;;;;8.43;67.55;98939.28;5043125;28;20675;-76
2021/05/05 11:38:07;;;;;;;3.53;3.30;;;;;;;9.31;65.16;98934.34;5043346;28;20628;-75
2021/05/05 11:40:34;;;;;;;3.27;3.00;;;;;;;10.41;59.28;98931.69;5043861;28;20674;-76
2021/05/05 11:43:00;;;;;;;4.23;3.03;;;;;;;10.36;56.48;98935.41;5042830;28;20680;-76
2021/05/05 11:45:26;;;;;;;2.20;2.00;;;;;;;9.86;57.16;98947.81;5043335;28;20226;-76
2021/05/05 11:47:52;;;;;;;3.43;2.20;;;;;;;9.74;56.93;98925.72;5042818;28;20238;-76
2021/05/05 11:50:20;;;;;;;2.90;2.07;;;;;;;9.98;56.94;98932.59;5043357;28;20209;-76